• Join FlightAware (Why Join?)
  • Login
  • US Flag 
06:01PM EDT


 

Airport Tracker/Info


-or-


 

Live Flight TrackerFlight Track Log ✈ ASA643 ✈ 29-Aug-2013 ✈ KPHX - KSEA

Flight Track Log - Related Links

Times and Time Zones

All times are in EDT time to prevent confusion due to time zone crossing. See the ASA643 flight status page for this flight to view local times or setup timezone preferences in your user account.

Time Position Orientation Groundspeed Altitude Reporting Facility
EDT Latitude Longitude Course Direction KTS MPH feet Rate Location/Type
02:07PM 33.4333 -112.0333 270° West 186 214 1,900  Level Phoenix TRACON
02:08PM 33.4333 -112.1167 270° West 224 258 3,500 1,560 Climbing Phoenix TRACON
02:09PM 33.4403 -112.1742 278° West 247 284 4,900 2,220 Climbing Albuquerque Center
02:10PM 33.5083 -112.1928 347° North 277 319 7,800 2,700 Climbing Albuquerque Center
02:11PM 33.5667 -112.1092 50° Northeast 272 313 10,600 2,220 Climbing Albuquerque Center
02:12PM 33.6353 -112.0417 39° Northeast 321 369 12,500 1,980 Climbing Albuquerque Center
02:13PM 33.7161 -111.9814 32° Northeast 340 391 14,700 1,980 Climbing Albuquerque Center
02:14PM 33.8006 -111.9181 32° Northeast 354 407 16,600 1,440 Climbing Albuquerque Center
02:15PM 33.8986 -111.8636 25° Northeast 398 458 17,700 1,320 Climbing Albuquerque Center
02:16PM 34.0314 -111.8800 354° North 416 479 19,400 1,620 Climbing Albuquerque Center
02:17PM 34.1503 -111.8953 354° North 428 493 21,100 1,500 Climbing Albuquerque Center
02:18PM 34.2631 -111.9125 353° North 441 507 22,500 1,440 Climbing Albuquerque Center
02:19PM 34.3869 -111.9289 354° North 445 512 24,100 1,380 Climbing Albuquerque Center
02:20PM 34.5356 -111.9494 353° North 446 513 25,400 1,200 Climbing Albuquerque Center
02:21PM 34.6631 -111.9678 353° North 454 522 26,600 1,080 Climbing Albuquerque Center
02:22PM 34.7903 -111.9856 353° North 463 533 27,700 900 Climbing Albuquerque Center
02:23PM 34.9194 -112.0028 354° North 468 539 28,500 780 Climbing Albuquerque Center
02:24PM 35.0508 -112.0197 354° North 475 547 29,300 900 Climbing Albuquerque Center
02:25PM 35.2092 -112.0419 353° North 481 554 30,400 1,020 Climbing Albuquerque Center
02:26PM 35.3408 -112.0589 354° North 481 554 31,500 1,020 Climbing Albuquerque Center
02:27PM 35.4703 -112.0767 354° North 477 549 32,600 960 Climbing Albuquerque Center
02:28PM 35.5992 -112.0933 354° North 473 544 33,500 660 Climbing Albuquerque Center
02:29PM 35.7275 -112.1117 353° North 471 542 34,000 240 Climbing Albuquerque Center
02:30PM 35.8831 -112.1336 353° North 472 543 34,000  Level Albuquerque Center
02:31PM 36.0081 -112.1758 345° North 480 552 34,000  Level Albuquerque Center
02:32PM 36.1236 -112.2469 334° Northwest 471 542 34,000  Level Albuquerque Center
02:34PM 36.2511 -112.3267 333° Northwest 468 539 34,000  Level Los Angeles Center
02:35PM 36.3686 -112.3992 334° Northwest 470 541 34,000  Level Los Angeles Center
02:36PM 36.5089 -112.4878 333° Northwest 472 543 34,000  Level Los Angeles Center
02:37PM 36.6269 -112.5625 333° Northwest 476 548 34,000  Level Los Angeles Center
02:38PM 36.7458 -112.6369 333° Northwest 477 549 34,000  Level Los Angeles Center
02:39PM 36.8642 -112.7136 333° Northwest 478 550 34,000  Level Los Angeles Center
02:40PM 37.0072 -112.8061 333° Northwest 481 554 34,000  Level Los Angeles Center
02:41PM 37.1253 -112.8819 333° Northwest 477 549 34,000  Level Los Angeles Center
02:42PM 37.2428 -112.9583 333° Northwest 474 545 34,000  Level Los Angeles Center
02:43PM 37.3614 -113.0347 333° Northwest 473 544 34,000  Level Los Angeles Center
02:44PM 37.4806 -113.1122 333° Northwest 474 545 34,000  Level Los Angeles Center
02:45PM 37.6006 -113.1903 333° Northwest 476 548 34,000 240 Level Los Angeles Center
02:46PM 37.7136 -113.2792 328° Northwest 480 552 34,600 480 Climbing Los Angeles Center
02:47PM 37.8333 -113.4064 320° Northwest 468 539 35,000 180 Climbing Los Angeles Center
02:48PM 37.9319 -113.5136 319° Northwest 466 536 35,000  Level Los Angeles Center
02:49PM 38.0317 -113.6203 320° Northwest 468 539 35,000  Level Los Angeles Center
02:50PM 38.1289 -113.7264 319° Northwest 463 533 35,000  Level Los Angeles Center
02:51PM 38.2278 -113.8336 320° Northwest 466 536 35,000  Level Los Angeles Center
02:52PM 38.3261 -113.9400 320° Northwest 465 535 35,000  Level Los Angeles Center
02:53PM 38.4442 -114.0694 319° Northwest 466 536 35,000  Level Los Angeles Center
02:55PM 38.5625 -114.1975 320° Northwest 466 536 35,000 120 Level Salt Lake Center
02:56PM 38.6814 -114.3275 320° Northwest 468 539 35,300 480 Climbing Salt Lake Center
02:57PM 38.7781 -114.4356 319° Northwest 463 533 36,000 300 Climbing Salt Lake Center
02:58PM 38.8750 -114.5422 319° Northwest 460 529 36,000  Level Salt Lake Center
02:59PM 38.9714 -114.6522 318° Northwest 463 533 36,000  Level Salt Lake Center
03:00PM 39.0683 -114.7611 319° Northwest 463 533 36,000  Level Salt Lake Center
03:01PM 39.1700 -114.8725 320° Northwest 464 534 36,000  Level Salt Lake Center
03:02PM 39.2761 -114.9978 318° Northwest 463 533 36,000  Level Salt Lake Center
03:03PM 39.3711 -115.1003 320° Northwest 464 534 36,000  Level Salt Lake Center
03:04PM 39.4797 -115.2219 319° Northwest 464 534 36,000  Level Salt Lake Center
03:05PM 39.5711 -115.3275 318° Northwest 462 532 36,000  Level Salt Lake Center
03:06PM 39.6756 -115.4517 318° Northwest 458 527 36,000  Level Salt Lake Center
03:07PM 39.7672 -115.5572 319° Northwest 459 528 36,000  Level Salt Lake Center
03:08PM 39.8747 -115.6797 319° Northwest 458 527 36,000  Level Salt Lake Center
03:09PM 39.9678 -115.7839 319° Northwest 461 531 36,000  Level Salt Lake Center
03:10PM 40.0744 -115.9097 318° Northwest 463 533 36,000  Level Salt Lake Center
03:11PM 40.1667 -116.0169 318° Northwest 464 534 36,000  Level Salt Lake Center
03:12PM 40.2556 -116.1244 317° Northwest 459 528 36,000  Level Salt Lake Center
03:13PM 40.3619 -116.2497 318° Northwest 463 533 36,000  Level Salt Lake Center
03:14PM 40.4536 -116.3575 318° Northwest 464 534 36,000  Level Salt Lake Center
03:15PM 40.5589 -116.4828 318° Northwest 461 531 36,000  Level Salt Lake Center
03:16PM 40.6483 -116.5906 318° Northwest 460 529 36,000  Level Salt Lake Center
03:17PM 40.7528 -116.7167 318° Northwest 461 531 36,000  Level Salt Lake Center
03:18PM 40.8578 -116.8425 318° Northwest 459 528 36,000  Level Salt Lake Center
03:20PM 40.9469 -116.9497 318° Northwest 456 525 36,000  Level Salt Lake Center
03:21PM 41.0356 -117.0583 317° Northwest 456 525 36,000  Level Salt Lake Center
03:22PM 41.1392 -117.1847 317° Northwest 455 524 36,000  Level Salt Lake Center
03:23PM 41.2283 -117.2939 317° Northwest 456 525 36,000  Level Salt Lake Center
03:24PM 41.3325 -117.4203 318° Northwest 456 525 36,000  Level Salt Lake Center
03:25PM 41.4206 -117.5308 317° Northwest 455 524 36,000  Level Salt Lake Center
03:26PM 41.5233 -117.6583 317° Northwest 453 521 36,000  Level Salt Lake Center
03:27PM 41.6092 -117.7647 317° Northwest 446 513 36,000  Level Salt Lake Center
03:28PM 41.7092 -117.8900 317° Northwest 442 509 36,000  Level Salt Lake Center
03:29PM 41.7944 -117.9972 317° Northwest 440 506 36,000  Level Salt Lake Center
03:30PM 41.9197 -118.0836 333° Northwest 460 529 36,000  Level Salt Lake Center
03:31PM 42.0333 -118.1481 337° Northwest 461 531 36,000  Level Salt Lake Center
03:32PM 42.1719 -118.1903 347° North 463 533 36,000  Level Salt Lake Center
03:33PM 42.2983 -118.1608 10° North 474 545 36,000  Level Salt Lake Center
03:34PM 42.4256 -118.1189 14° North 478 550 36,000  Level Salt Lake Center
03:35PM 42.5614 -118.1522 350° North 448 516 36,000  Level Salt Lake Center
03:36PM 42.6819 -118.2178 338° Northwest 444 511 36,000  Level Salt Lake Center
03:37PM 42.7961 -118.2778 339° North 442 509 36,000  Level Salt Lake Center
03:38PM 42.9108 -118.3400 338° Northwest 442 509 36,000  Level Salt Lake Center
03:39PM 43.0256 -118.4014 339° North 444 511 36,000  Level Salt Lake Center
03:40PM 43.1403 -118.4617 339° North 443 510 36,000  Level Salt Lake Center
03:41PM 43.2789 -118.5358 339° North 446 513 36,000  Level Salt Lake Center
03:42PM 43.3931 -118.6003 338° Northwest 445 512 36,000  Level Salt Lake Center
03:43PM 43.5083 -118.6619 339° North 445 512 36,000  Level Salt Lake Center
03:44PM 43.6228 -118.7267 338° Northwest 445 512 36,000  Level Salt Lake Center
03:45PM 43.7381 -118.7889 339° North 446 513 36,000  Level Salt Lake Center
03:46PM 43.8542 -118.8528 338° Northwest 449 517 36,000  Level Salt Lake Center
03:47PM 43.9931 -118.9306 338° Northwest 449 517 36,000  Level Salt Lake Center
03:48PM 44.0825 -118.9856 336° Northwest 449 517 36,000  Level Seattle Center
03:49PM 44.1989 -119.0494 339° North 451 519 36,000  Level Seattle Center
03:50PM 44.3136 -119.1144 338° Northwest 450 518 36,000  Level Seattle Center
03:51PM 44.4278 -119.1794 338° Northwest 446 513 36,000  Level Seattle Center
03:52PM 44.5428 -119.2450 338° Northwest 448 516 36,000  Level Seattle Center
03:53PM 44.6586 -119.3081 339° North 449 517 36,000  Level Seattle Center
03:54PM 44.7733 -119.3742 338° Northwest 449 517 36,000  Level Seattle Center
03:55PM 44.9083 -119.4517 338° Northwest 442 509 36,000  Level Seattle Center
03:56PM 45.0197 -119.5172 337° Northwest 440 506 36,000  Level Seattle Center
03:57PM 45.1325 -119.5819 338° Northwest 443 510 36,000  Level Seattle Center
03:58PM 45.2458 -119.6494 337° Northwest 447 514 36,000  Level Seattle Center
03:59PM 45.3606 -119.7158 338° Northwest 450 518 36,000  Level Seattle Center
04:00PM 45.4747 -119.7839 337° Northwest 448 516 36,000  Level Seattle Center
04:01PM 45.5894 -119.8506 338° Northwest 447 514 36,000  Level Seattle Center
04:03PM 45.7042 -119.9189 337° Northwest 449 517 36,000  Level Seattle Center
04:04PM 45.8406 -120.0000 337° Northwest 444 511 36,000  Level Seattle Center
04:05PM 45.9675 -120.0219 353° North 469 540 36,000  Level Seattle Center
04:06PM 46.1008 -120.0153 North 480 552 36,000 -600 Level Seattle Center
04:07PM 46.2119 -120.1039 331° Northwest 457 526 34,900 -2,100 Descending Seattle Center
04:08PM 46.3158 -120.2053 326° Northwest 452 520 31,800 -2,220 Descending Seattle Center
04:09PM 46.4214 -120.3058 327° Northwest 455 524 30,500 -1,140 Descending Seattle Center
04:10PM 46.5278 -120.4042 328° Northwest 455 524 29,500 -960 Descending Seattle Center
04:11PM 46.6119 -120.5358 313° West 446 513 28,600 -960 Descending Seattle Center
04:12PM 46.6800 -120.6786 305° West 434 499 27,600 -1,080 Descending Seattle Center
04:13PM 46.7469 -120.8200 305° West 427 491 26,500 -1,200 Descending Seattle Center
04:14PM 46.8250 -120.9850 305° West 414 476 25,200 -1,140 Descending Seattle Center
04:15PM 46.8883 -121.1200 305° West 406 467 24,200 -1,020 Descending Seattle Center
04:16PM 46.9506 -121.2531 304° West 400 460 23,200 -1,620 Descending Seattle Center
04:17PM 47.0133 -121.3872 304° West 400 460 20,900 -1,860 Descending Seattle Center
04:18PM 47.0694 -121.5075 304° West 395 455 19,500 -1,740 Descending Seattle Center
04:19PM 47.1364 -121.6522 304° West 355 409 17,400 -2,040 Descending Seattle Center
04:20PM 47.1942 -121.7786 304° West 351 404 15,400 -1,260 Descending Seattle Center
04:21PM 47.2467 -121.8936 304° West 338 389 14,900 -1,080 Descending Seattle Center
04:22PM 47.2967 -122.0028 304° West 321 369 13,300 -1,860 Descending Seattle Center
04:23PM 47.3444 -122.1081 304° West 311 358 11,200 -1,680 Descending Seattle Center
04:24PM 47.4039 -122.1967 315° West 315 362 9,900 -1,380 Descending Seattle Center
04:25PM 47.4989 -122.1933 North 319 367 8,500 -1,440 Descending Seattle Center
04:26PM 47.5836 -122.1856 North 310 357 7,100 -1,440 Descending Seattle Center
04:27PM 47.6739 -122.1842 North 305 351 5,600 -1,380 Descending Seattle Center
04:28PM 47.7100 -122.2633 304° West 249 287 4,400 -960 Descending Seattle Center
04:29PM 47.6642 -122.3169 218° Southwest 216 249 3,700 -540 Descending Seattle Center
04:30PM 47.6219 -122.3189 182° South 175 201 3,400 -600 Descending Seattle Center
04:31PM 47.5769 -122.3175 179° South 157 181 2,600 -840 Descending Seattle Center
04:32PM 47.5283 -122.3181 180° South 161 185 1,700 -900 Descending Seattle Center
04:33PM 47.4861 -122.3183 180° South 151 174 900 -600 Descending Seattle Center
04:34PM 47.4342 -122.3186 180° South 153 176 400 -480 Descending Seattle Center
04:36PM 47.4333 -122.3000 90° East  Level FlightAware Approximate